This is the latest recevied weather packets stored in our database for station/object KI4MRC. If no packets are shown the sender has not sent any weather packets the latest 10 day(s).
| Time | Temp. | Humidity | Pressure | Rain* | Wind** | Luminosity | Snow |
|---|---|---|---|---|---|---|---|
| 1777775639 | 25° C | 79% | 1013.4 hPa | 0 mm | - | 0 W/m² | - |
| 1777775336 | 25° C | 78% | 1013.2 hPa | 0 mm | - | 0 W/m² | - |
| 1777775035 | 25.56° C | 77% | 1013.3 hPa | 0 mm | - | 0 W/m² | - |
| 1777774732 | 25.56° C | 77% | 1013.3 hPa | 0 mm | - | 0 W/m² | - |
| 1777774428 | 25.56° C | 76% | 1013.3 hPa | 0 mm | - | 0 W/m² | - |
| 1777774126 | 25.56° C | 76% | 1013.1 hPa | 0 mm | - | 0 W/m² | - |
| 1777773520 | 26.11° C | 75% | 1013.2 hPa | 0 mm | - | 0 W/m² | - |
| 1777773217 | 26.11° C | 74% | 1013.2 hPa | 0 mm | - | 0 W/m² | - |
| 1777772611 | 26.67° C | 72% | 1013 hPa | 0 mm | - | 0 W/m² | - |
| 1777772308 | 26.67° C | 71% | 1013 hPa | 0 mm | - | 0 W/m² | - |
| 1777771400 | 26.67° C | 71% | 1012.8 hPa | 0 mm | - | 0 W/m² | - |
| 1777768369 | 27.78° C | 65% | 1011.8 hPa | 0 mm | - | 0 W/m² | - |
| 1777767763 | 27.78° C | 65% | 1011.9 hPa | 0 mm | - | 0 W/m² | - |
| 1777767459 | 28.33° C | 65% | 1011.7 hPa | 0 mm | - | 0 W/m² | - |
| 1777766853 | 28.33° C | 63% | 1011.7 hPa | 0 mm | - | 0 W/m² | - |
| 1777766247 | 28.89° C | 62% | 1011.5 hPa | 0 mm | - | 1 W/m² | - |
| 1777765034 | 29.44° C | 60% | 1010.9 hPa | 0 mm | - | 9 W/m² | - |
| 1777764731 | 29.44° C | 59% | 1011.2 hPa | 0 mm | - | 11 W/m² | - |
| 1777764427 | 30° C | 57% | 1011.1 hPa | 0 mm | - | 14 W/m² | - |
| 1777763821 | 30° C | 57% | 1010.9 hPa | 0 mm | - | 23 W/m² | - |
| 1777761701 | 31.11° C | 52% | 1010.1 hPa | 0 mm | - | 65 W/m² | - |
| 1777761399 | 31.11° C | 52% | 1010.1 hPa | 0 mm | - | 67 W/m² | - |
| 1777761097 | 31.67° C | 51% | 1010.2 hPa | 0 mm | - | 66 W/m² | - |
| 1777760794 | 31.67° C | 50% | 1010.2 hPa | 0 mm | - | 71 W/m² | - |
| 1777760186 | 31.67° C | 49% | 1010.1 hPa | 0 mm | - | 73 W/m² | - |
* Rain latest hour (hover to see other rain measurements)
** Current wind speed in m/s (hover to see current wind gust speed)